Time;durP1;ratioP1;P1;durP2;ratioP2;P2;SDS_P1;SDS_P2;PMS_P1;PMS_P2;Temp;Humidity;BMP_temperature;BMP_pressure;BME280_temperature;BME280_humidity;BME280_pressure;Samples;Min_cycle;Max_cycle;Signal;HPM_P1;HPM_P2
2022/02/18 00:00:25;;;;;;;2.35;1.07;;;;;;;5.14;74.42;97113.87;1744733;80;21003;-67
2022/02/18 00:02:52;;;;;;;1.70;1.50;;;;;;;5.12;74.64;97119.84;1766495;80;21386;-64
2022/02/18 00:05:18;;;;;;;1.52;1.20;;;;;;;5.12;74.78;97123.80;1764077;80;21078;-64
2022/02/18 00:07:45;;;;;;;2.37;1.20;;;;;;;5.15;74.86;97132.14;1753268;81;21005;-61
2022/02/18 00:10:12;;;;;;;5.10;3.55;;;;;;;5.17;74.93;97138.52;1734286;82;21221;-65
2022/02/18 00:12:39;;;;;;;2.00;1.37;;;;;;;5.20;75.00;97151.33;1740552;81;21475;-65
2022/02/18 00:15:09;;;;;;;1.72;1.50;;;;;;;5.24;75.02;97156.54;1750045;80;21549;-65
2022/02/18 00:17:38;;;;;;;3.15;1.25;;;;;;;5.29;75.01;97160.73;1753030;81;21461;-63
2022/02/18 00:20:07;;;;;;;1.55;1.20;;;;;;;5.33;74.93;97168.55;1739291;81;20999;-65
2022/02/18 00:22:35;;;;;;;1.98;1.45;;;;;;;5.36;74.97;97178.22;1761454;80;21178;-62
2022/02/18 00:25:03;;;;;;;2.40;1.22;;;;;;;5.40;74.95;97186.53;1757017;80;20923;-62
2022/02/18 00:27:30;;;;;;;2.15;1.52;;;;;;;5.41;74.92;97185.54;1751486;80;20896;-65
2022/02/18 00:30:00;;;;;;;1.40;1.10;;;;;;;5.42;74.89;97191.14;1754869;80;21422;-63
2022/02/18 00:32:26;;;;;;;1.37;1.00;;;;;;;5.43;74.76;97198.84;1752331;80;21015;-62
2022/02/18 00:34:52;;;;;;;1.30;1.15;;;;;;;5.45;74.59;97196.82;1767029;80;21150;-63
2022/02/18 00:37:19;;;;;;;2.55;1.00;;;;;;;5.48;74.41;97201.72;1743488;80;21042;-65
2022/02/18 00:39:45;;;;;;;2.85;1.20;;;;;;;5.49;74.13;97199.90;1743664;82;20941;-64
2022/02/18 00:42:12;;;;;;;1.32;1.10;;;;;;;5.48;73.70;97203.03;1754423;80;21435;-63
2022/02/18 00:44:39;;;;;;;3.75;1.10;;;;;;;5.43;73.25;97217.80;1760299;80;21076;-63
2022/02/18 00:47:06;;;;;;;1.42;0.90;;;;;;;5.37;73.01;97227.29;1758805;80;21111;-64
2022/02/18 00:49:33;;;;;;;0.90;0.68;;;;;;;5.34;72.81;97222.92;1751463;80;20931;-65
2022/02/18 00:51:59;;;;;;;2.17;1.00;;;;;;;5.30;72.68;97234.84;1755712;80;21401;-66
2022/02/18 00:54:26;;;;;;;1.42;0.90;;;;;;;5.27;72.51;97234.72;1746683;80;21004;-64
2022/02/18 00:56:54;;;;;;;0.98;0.88;;;;;;;5.24;72.32;97253.55;1742600;80;21426;-63
2022/02/18 00:59:21;;;;;;;1.37;0.80;;;;;;;5.22;72.18;97257.37;1758264;81;22878;-64
2022/02/18 01:01:48;;;;;;;1.50;0.75;;;;;;;5.17;71.98;97256.64;1761943;80;20959;-63
2022/02/18 01:04:16;;;;;;;1.30;1.00;;;;;;;5.15;71.74;97256.52;1749944;80;21052;-64
2022/02/18 01:06:43;;;;;;;1.50;0.82;;;;;;;5.10;71.58;97261.55;1758356;80;20943;-64
2022/02/18 01:09:11;;;;;;;1.50;0.90;;;;;;;5.04;71.41;97257.84;1750666;80;21493;-65
2022/02/18 01:11:38;;;;;;;2.50;0.98;;;;;;;4.95;71.14;97261.62;1765169;80;21151;-64
2022/02/18 01:14:05;;;;;;;1.90;1.00;;;;;;;4.89;71.07;97274.22;1757900;80;21456;-64
2022/02/18 01:16:33;;;;;;;1.72;1.02;;;;;;;4.83;71.01;97277.59;1762450;80;20848;-65
2022/02/18 01:19:00;;;;;;;1.80;0.93;;;;;;;4.75;70.91;97277.70;1772793;80;20895;-64
2022/02/18 01:21:27;;;;;;;1.42;1.05;;;;;;;4.68;70.67;97284.23;1773660;80;20923;-63
2022/02/18 01:23:55;;;;;;;2.10;1.00;;;;;;;4.63;70.57;97289.74;1750138;80;21103;-64
2022/02/18 01:26:21;;;;;;;1.57;0.93;;;;;;;4.58;70.47;97294.75;1742464;80;20949;-62
2022/02/18 01:28:47;;;;;;;1.60;0.93;;;;;;;4.53;70.47;97302.39;1744611;80;21003;-64
2022/02/18 01:31:14;;;;;;;1.30;0.82;;;;;;;4.48;70.48;97303.45;1726235;81;21551;-65
2022/02/18 01:33:43;;;;;;;1.02;0.75;;;;;;;4.44;70.50;97310.06;1733699;82;20891;-61
2022/02/18 01:36:09;;;;;;;2.22;0.95;;;;;;;4.40;70.51;97309.64;1733583;82;21953;-63
2022/02/18 01:38:35;;;;;;;1.40;1.00;;;;;;;4.38;70.61;97314.25;1734159;82;21434;-64
2022/02/18 01:41:03;;;;;;;1.52;0.95;;;;;;;4.34;70.77;97320.39;1712256;82;20958;-63
2022/02/18 01:43:30;;;;;;;3.65;1.00;;;;;;;4.31;70.86;97318.13;1724515;82;20902;-64
2022/02/18 01:45:56;;;;;;;2.25;0.90;;;;;;;4.33;70.87;97330.59;1727781;82;21010;-63
2022/02/18 01:48:23;;;;;;;1.12;0.72;;;;;;;4.32;70.91;97334.74;1712547;82;21839;-66
2022/02/18 01:50:49;;;;;;;3.12;1.80;;;;;;;4.31;70.88;97332.60;1713976;82;20891;-63
2022/02/18 01:53:17;;;;;;;2.75;1.57;;;;;;;4.31;70.86;97340.50;1726236;82;20923;-64
2022/02/18 01:55:44;;;;;;;2.37;1.10;;;;;;;4.32;70.86;97342.14;1724924;82;21590;-64
2022/02/18 01:58:10;;;;;;;2.30;1.50;;;;;;;4.33;70.86;97346.88;1723896;82;21000;-61
2022/02/18 02:00:36;;;;;;;2.35;1.47;;;;;;;4.33;70.86;97350.83;1718252;82;21227;-64
2022/02/18 02:03:03;;;;;;;2.45;1.40;;;;;;;4.31;70.96;97348.89;1714680;82;21435;-64
2022/02/18 02:05:29;;;;;;;1.82;1.35;;;;;;;4.32;71.07;97351.85;1718821;82;20896;-62
2022/02/18 02:07:58;;;;;;;2.30;1.47;;;;;;;4.32;71.23;97363.70;1727430;81;21447;-65
2022/02/18 02:10:25;;;;;;;1.80;1.50;;;;;;;4.34;71.24;97360.38;1709166;82;20938;-63
2022/02/18 02:12:53;;;;;;;2.72;1.30;;;;;;;4.36;71.43;97374.16;1724076;82;21837;-64
2022/02/18 02:15:26;;;;;;;2.12;1.40;;;;;;;4.40;71.59;97374.14;1735206;81;20947;-62
2022/02/18 02:17:53;;;;;;;2.00;1.10;;;;;;;4.44;71.80;97371.45;1714311;82;21059;-63
2022/02/18 02:20:20;;;;;;;2.00;1.40;;;;;;;4.48;72.02;97378.48;1730126;81;20994;-64
2022/02/18 02:22:47;;;;;;;2.95;1.50;;;;;;;4.50;72.17;97388.33;1720936;82;20933;-64
2022/02/18 02:25:14;;;;;;;2.72;2.00;;;;;;;4.49;72.27;97391.45;1713613;82;21453;-64
2022/02/18 02:27:41;;;;;;;3.00;1.72;;;;;;;4.52;72.48;97399.00;1716380;82;20967;-63
2022/02/18 02:30:10;;;;;;;4.45;2.02;;;;;;;4.52;72.88;97392.42;1730380;81;20988;-62
2022/02/18 02:32:37;;;;;;;2.75;1.75;;;;;;;4.54;73.32;97403.58;1728918;82;21015;-65
2022/02/18 02:35:06;;;;;;;3.37;2.00;;;;;;;4.57;73.69;97403.22;1727218;82;20986;-63
2022/02/18 02:37:34;;;;;;;3.22;1.60;;;;;;;4.60;73.95;97415.20;1734044;82;21144;-63
2022/02/18 02:40:00;;;;;;;3.37;2.08;;;;;;;4.61;74.18;97411.09;1727883;82;20886;-64
2022/02/18 02:42:28;;;;;;;2.70;1.87;;;;;;;4.61;74.37;97416.35;1737346;82;20965;-62
2022/02/18 02:44:57;;;;;;;3.87;1.95;;;;;;;4.61;74.40;97416.35;1731128;82;20938;-65
2022/02/18 02:47:24;;;;;;;2.05;1.50;;;;;;;4.59;74.49;97415.70;1708890;82;21578;-63
2022/02/18 02:49:52;;;;;;;2.47;1.80;;;;;;;4.58;74.63;97418.03;1735350;82;21795;-64
2022/02/18 02:52:18;;;;;;;2.87;1.72;;;;;;;4.57;74.71;97422.97;1736964;82;20969;-64
2022/02/18 02:54:46;;;;;;;3.62;1.60;;;;;;;4.56;74.82;97424.48;1737371;82;20938;-64
2022/02/18 02:57:14;;;;;;;2.52;1.60;;;;;;;4.57;74.93;97420.83;1738006;82;20954;-61
2022/02/18 02:59:48;;;;;;;4.00;2.00;;;;;;;4.55;74.99;97428.92;1737356;82;20958;-63
2022/02/18 03:02:15;;;;;;;2.65;1.60;;;;;;;4.53;75.12;97434.05;1735000;82;22057;-66
2022/02/18 03:04:42;;;;;;;3.12;1.82;;;;;;;4.50;75.29;97437.87;1736246;82;21475;-66
2022/02/18 03:07:09;;;;;;;2.90;1.85;;;;;;;4.50;75.51;97442.31;1734631;82;20945;-65
2022/02/18 03:09:37;;;;;;;2.87;2.00;;;;;;;4.49;75.67;97445.93;1737501;82;21109;-65
2022/02/18 03:12:07;;;;;;;3.00;1.85;;;;;;;4.50;75.89;97447.09;1722917;82;21495;-62
2022/02/18 03:14:44;;;;;;;3.45;2.80;;;;;;;4.52;76.02;97442.45;1707263;82;20926;-64
2022/02/18 03:17:12;;;;;;;4.58;2.55;;;;;;;4.53;76.13;97448.05;1735487;82;20926;-63
2022/02/18 03:19:39;;;;;;;4.47;2.72;;;;;;;4.54;76.30;97446.20;1736747;82;20946;-64
2022/02/18 03:22:06;;;;;;;2.70;2.17;;;;;;;4.53;76.43;97444.59;1734478;82;21053;-63
2022/02/18 03:24:35;;;;;;;4.17;2.35;;;;;;;4.52;76.59;97450.84;1735522;81;20921;-65
2022/02/18 03:27:03;;;;;;;4.00;2.67;;;;;;;4.52;76.83;97459.56;1736335;82;21696;-64
2022/02/18 03:29:32;;;;;;;3.30;2.27;;;;;;;4.54;77.03;97460.69;1738550;80;20891;-63
2022/02/18 03:32:01;;;;;;;4.30;3.30;;;;;;;4.53;77.31;97456.44;1739514;80;20931;-64
2022/02/18 03:34:29;;;;;;;3.55;2.12;;;;;;;4.53;77.37;97465.16;1741825;80;20920;-63
2022/02/18 03:36:56;;;;;;;3.95;2.62;;;;;;;4.53;77.47;97467.80;1762991;80;21066;-63
2022/02/18 03:39:24;;;;;;;5.78;2.62;;;;;;;4.53;77.61;97470.92;1726816;82;21504;-63
2022/02/18 03:41:51;;;;;;;3.25;2.60;;;;;;;4.53;77.82;97465.16;1738045;82;20888;-61
2022/02/18 03:44:18;;;;;;;5.00;2.75;;;;;;;4.55;78.06;97471.55;1698945;82;20948;-63
2022/02/18 03:46:54;;;;;;;3.08;2.42;;;;;;;4.56;78.21;97474.02;1698039;84;20904;-64
2022/02/18 03:49:21;;;;;;;2.77;2.52;;;;;;;4.59;78.33;97472.31;1760798;80;20944;-64
2022/02/18 03:51:48;;;;;;;3.10;2.35;;;;;;;4.61;78.39;97483.52;1732536;81;21219;-65
2022/02/18 03:54:15;;;;;;;3.45;2.90;;;;;;;4.63;78.41;97499.13;1734476;80;20896;-63
2022/02/18 03:56:42;;;;;;;2.98;2.50;;;;;;;4.63;78.42;97504.39;1738439;82;21438;-62
2022/02/18 03:59:09;;;;;;;2.95;2.52;;;;;;;4.62;78.56;97511.95;1738391;82;21012;-63
2022/02/18 04:01:36;;;;;;;5.15;2.65;;;;;;;4.61;78.78;97511.16;1717112;82;20994;-64
2022/02/18 04:04:03;;;;;;;3.87;2.37;;;;;;;4.61;79.01;97511.16;1745519;80;21149;-65
2022/02/18 04:06:31;;;;;;;4.08;2.45;;;;;;;4.63;79.26;97518.38;1764637;80;20923;-65
2022/02/18 04:09:05;;;;;;;3.27;2.70;;;;;;;4.65;79.63;97519.50;1736924;82;21060;-63
2022/02/18 04:11:39;;;;;;;4.15;1.98;;;;;;;4.64;79.79;97520.00;1737688;82;20991;-63
2022/02/18 04:14:07;;;;;;;2.58;2.37;;;;;;;4.64;80.09;97532.37;1747731;80;21022;-62
2022/02/18 04:16:35;;;;;;;2.72;2.10;;;;;;;4.64;80.24;97531.05;1746328;81;21165;-62
2022/02/18 04:19:04;;;;;;;2.47;2.12;;;;;;;4.66;80.39;97527.73;1738984;80;20975;-69
2022/02/18 04:21:33;;;;;;;3.22;2.77;;;;;;;4.66;80.51;97530.38;1756130;80;21003;-64
2022/02/18 04:24:05;;;;;;;2.75;2.27;;;;;;;4.65;80.69;97538.77;1729042;82;20908;-65
2022/02/18 04:26:33;;;;;;;3.45;2.42;;;;;;;4.66;80.83;97527.24;1718273;82;21007;-64
2022/02/18 04:28:59;;;;;;;4.17;2.33;;;;;;;4.66;80.91;97534.32;1738342;82;21141;-63
2022/02/18 04:31:25;;;;;;;2.75;2.10;;;;;;;4.64;81.04;97542.39;1748155;80;21569;-63
2022/02/18 04:33:51;;;;;;;3.37;2.58;;;;;;;4.65;81.16;97551.94;1753686;80;20913;-63
2022/02/18 04:36:18;;;;;;;3.45;2.58;;;;;;;4.66;81.28;97549.63;1736114;80;21541;-64
2022/02/18 04:38:44;;;;;;;3.35;2.60;;;;;;;4.68;81.39;97549.44;1764117;80;20994;-64
2022/02/18 04:41:11;;;;;;;2.87;2.60;;;;;;;4.68;81.49;97552.89;1761934;80;21151;-62
2022/02/18 04:43:37;;;;;;;4.87;3.35;;;;;;;4.69;81.58;97557.67;1740952;80;20931;-62
2022/02/18 04:46:03;;;;;;;3.10;2.80;;;;;;;4.69;81.69;97562.94;1728427;80;21461;-64
2022/02/18 04:48:31;;;;;;;3.33;2.60;;;;;;;4.68;81.69;97563.44;1752346;80;20980;-64
2022/02/18 04:50:58;;;;;;;3.60;2.40;;;;;;;4.67;81.76;97568.37;1745351;80;21505;-64
2022/02/18 04:53:24;;;;;;;3.62;2.83;;;;;;;4.65;81.82;97573.00;1746792;80;21106;-63
2022/02/18 04:55:51;;;;;;;2.60;2.40;;;;;;;4.65;81.96;97585.35;1742610;81;20875;-63
2022/02/18 04:58:18;;;;;;;4.72;2.90;;;;;;;4.63;82.11;97589.98;1744108;82;20899;-65
2022/02/18 05:00:44;;;;;;;2.60;2.40;;;;;;;4.60;82.26;97589.84;1750443;80;21548;-65
2022/02/18 05:03:10;;;;;;;3.58;2.35;;;;;;;4.60;82.43;97588.53;1731706;82;20998;-63
2022/02/18 05:05:38;;;;;;;2.80;2.35;;;;;;;4.61;82.55;97591.98;1727743;82;21097;-65
2022/02/18 05:08:05;;;;;;;2.52;2.27;;;;;;;4.61;82.64;97592.81;1711373;82;21542;-63
2022/02/18 05:10:32;;;;;;;3.55;2.87;;;;;;;4.63;82.74;97599.20;1674298;84;20965;-65
2022/02/18 05:12:59;;;;;;;4.87;3.00;;;;;;;4.62;82.81;97605.45;1746099;81;20942;-66
2022/02/18 05:15:26;;;;;;;3.22;2.80;;;;;;;4.63;82.93;97606.61;1747948;80;21544;-61
2022/02/18 05:17:52;;;;;;;3.22;2.70;;;;;;;4.65;83.02;97603.30;1745141;81;21157;-63
2022/02/18 05:20:18;;;;;;;2.87;2.50;;;;;;;4.66;83.09;97606.27;1771017;80;20927;-65
2022/02/18 05:22:45;;;;;;;2.60;2.40;;;;;;;4.67;83.21;97610.52;1760007;80;21606;-64
2022/02/18 05:25:12;;;;;;;3.45;2.70;;;;;;;4.67;83.25;97612.32;1702852;84;20884;-63
2022/02/18 05:27:40;;;;;;;2.72;2.47;;;;;;;4.66;83.38;97617.29;1687531;84;21023;-64
2022/02/18 05:30:08;;;;;;;3.05;2.20;;;;;;;4.66;83.37;97626.51;1769079;80;21135;-62
2022/02/18 05:32:35;;;;;;;3.45;2.85;;;;;;;4.64;83.35;97629.30;1752919;80;20897;-64
2022/02/18 05:35:02;;;;;;;6.03;3.00;;;;;;;4.64;83.38;97624.03;1745859;81;20857;-65
2022/02/18 05:37:29;;;;;;;2.95;2.70;;;;;;;4.66;83.46;97623.87;1743807;82;21014;-65
2022/02/18 05:39:55;;;;;;;4.25;2.92;;;;;;;4.65;83.48;97624.86;1760584;80;20989;-65
2022/02/18 05:42:22;;;;;;;3.92;2.92;;;;;;;4.66;83.47;97635.23;1711624;82;21819;-65
2022/02/18 05:44:49;;;;;;;3.92;2.65;;;;;;;4.70;83.40;97634.36;1764260;80;21498;-63
2022/02/18 05:47:15;;;;;;;3.15;2.55;;;;;;;4.72;83.33;97638.98;1739740;80;21080;-62
2022/02/18 05:49:42;;;;;;;3.90;2.98;;;;;;;4.73;83.22;97645.86;1733873;80;20974;-63
2022/02/18 05:52:08;;;;;;;3.30;2.37;;;;;;;4.74;83.14;97641.75;1737718;82;20944;-63
2022/02/18 05:54:36;;;;;;;3.37;2.30;;;;;;;4.78;83.01;97647.47;1752444;80;21136;-65
2022/02/18 05:57:05;;;;;;;4.15;2.72;;;;;;;4.82;82.85;97652.20;1759311;80;21548;-64
2022/02/18 05:59:31;;;;;;;4.65;2.50;;;;;;;4.84;82.68;97655.49;1744642;80;20935;-63
2022/02/18 06:01:58;;;;;;;2.67;2.10;;;;;;;4.90;82.53;97668.45;1740691;82;20983;-64
2022/02/18 06:04:24;;;;;;;3.20;2.40;;;;;;;4.95;82.30;97680.08;1737461;80;21021;-64
2022/02/18 06:06:51;;;;;;;2.67;2.47;;;;;;;5.04;82.10;97678.69;1736705;80;21477;-62
2022/02/18 06:09:17;;;;;;;3.67;2.60;;;;;;;5.17;81.81;97679.72;1769102;80;20892;-64
2022/02/18 06:11:44;;;;;;;3.90;2.90;;;;;;;5.41;81.91;97682.12;1773501;80;21425;-62
2022/02/18 06:14:10;;;;;;;3.58;2.42;;;;;;;5.76;81.43;97685.03;1763968;80;21019;-74
2022/02/18 06:16:39;;;;;;;4.12;2.77;;;;;;;6.00;80.22;97696.12;1744416;80;21018;-70
2022/02/18 06:19:10;;;;;;;3.20;2.40;;;;;;;6.15;79.07;97696.12;1770492;80;21129;-66
2022/02/18 06:21:37;;;;;;;4.08;2.98;;;;;;;6.21;78.02;97695.36;1764413;80;21565;-68
2022/02/18 06:24:04;;;;;;;2.92;2.60;;;;;;;6.23;77.47;97706.05;1750667;80;20939;-68
2022/02/18 06:26:34;;;;;;;3.15;2.52;;;;;;;6.31;77.11;97710.40;1767224;80;20959;-67
2022/02/18 06:29:02;;;;;;;4.67;3.37;;;;;;;6.48;77.17;97715.79;1756207;80;20971;-62
2022/02/18 06:31:29;;;;;;;4.15;2.77;;;;;;;6.84;77.22;97711.77;1749998;80;21128;-64
2022/02/18 06:33:55;;;;;;;3.22;2.90;;;;;;;7.30;76.49;97712.19;1760793;80;21007;-62
2022/02/18 06:36:22;;;;;;;4.05;3.65;;;;;;;7.62;74.77;97718.69;1751878;80;20933;-60
2022/02/18 06:38:49;;;;;;;5.37;3.92;;;;;;;7.74;73.09;97723.78;1736540;80;21115;-64
2022/02/18 06:41:15;;;;;;;4.85;3.77;;;;;;;7.71;72.20;97718.87;1756108;80;21046;-63
2022/02/18 06:43:41;;;;;;;4.37;3.10;;;;;;;7.65;71.64;97722.28;1752976;80;21758;-68
2022/02/18 06:46:07;;;;;;;4.70;3.35;;;;;;;7.56;71.08;97732.19;1746951;80;20994;-68
2022/02/18 06:48:35;;;;;;;5.10;3.12;;;;;;;7.41;70.95;97736.77;1757883;80;20937;-66
2022/02/18 06:51:02;;;;;;;2.90;2.15;;;;;;;7.28;71.13;97728.73;1769962;80;20860;-69
2022/02/18 06:53:28;;;;;;;2.58;2.37;;;;;;;7.17;71.36;97741.17;1758728;80;20975;-66
2022/02/18 06:55:55;;;;;;;3.95;1.92;;;;;;;7.06;71.50;97741.17;1768086;80;22275;-64
2022/02/18 06:58:22;;;;;;;2.37;2.10;;;;;;;7.06;71.59;97751.75;1757082;80;20940;-64
2022/02/18 07:00:51;;;;;;;3.85;2.42;;;;;;;7.11;72.22;97759.94;1757290;80;20951;-66
2022/02/18 07:03:20;;;;;;;4.75;2.77;;;;;;;7.34;72.21;97760.54;1767759;80;20999;-66
2022/02/18 07:05:48;;;;;;;2.85;2.17;;;;;;;7.47;71.35;97762.47;1771653;80;21082;-65
2022/02/18 07:08:16;;;;;;;3.87;2.90;;;;;;;7.51;70.75;97761.06;1747452;80;21187;-66
2022/02/18 07:10:42;;;;;;;4.85;3.47;;;;;;;7.48;70.25;97770.73;1762834;80;20845;-66
2022/02/18 07:13:11;;;;;;;4.33;3.58;;;;;;;7.37;70.07;97765.45;1742410;80;20962;-64
2022/02/18 07:15:39;;;;;;;3.70;3.40;;;;;;;7.26;70.20;97771.25;1753723;80;20931;-65
2022/02/18 07:18:05;;;;;;;6.15;4.20;;;;;;;7.11;70.44;97778.94;1768926;80;21034;-66
2022/02/18 07:20:32;;;;;;;6.37;4.37;;;;;;;6.96;70.69;97781.63;1751138;80;21156;-65
2022/02/18 07:22:58;;;;;;;6.28;4.33;;;;;;;6.78;71.02;97789.16;1765842;80;21545;-69
2022/02/18 07:25:25;;;;;;;5.30;4.12;;;;;;;6.60;71.70;97786.12;1752343;81;21123;-64
2022/02/18 07:27:52;;;;;;;6.40;4.00;;;;;;;6.50;73.13;97794.34;1746484;80;21070;-68
2022/02/18 07:30:19;;;;;;;5.75;4.92;;;;;;;6.41;74.48;97797.29;1754646;80;20889;-63
2022/02/18 07:32:45;;;;;;;5.60;4.55;;;;;;;6.31;74.55;97798.87;1756057;80;21967;-64
2022/02/18 07:35:12;;;;;;;4.97;3.67;;;;;;;6.18;79.71;97791.60;1760221;80;20976;-66
2022/02/18 07:37:38;;;;;;;5.53;4.17;;;;;;;6.15;76.15;97798.56;1764339;80;20908;-64
2022/02/18 07:40:07;;;;;;;4.87;3.83;;;;;;;6.09;76.18;97796.67;1765603;80;21544;-66
2022/02/18 07:42:36;;;;;;;4.20;3.25;;;;;;;6.06;76.22;97793.08;1749050;80;20949;-68
2022/02/18 07:45:06;;;;;;;5.58;2.70;;;;;;;6.06;76.54;97797.03;1768011;80;21045;-66
2022/02/18 07:47:32;;;;;;;5.15;3.00;;;;;;;6.05;76.55;97801.98;1749622;80;21038;-64
2022/02/18 07:49:58;;;;;;;5.65;3.22;;;;;;;6.07;76.48;97808.42;1756238;80;21715;-66
2022/02/18 07:52:25;;;;;;;7.72;4.45;;;;;;;6.09;76.83;97800.64;1734729;82;20967;-64
2022/02/18 07:54:52;;;;;;;5.78;3.05;;;;;;;6.03;77.17;97802.67;1740220;82;21306;-67
2022/02/18 07:57:18;;;;;;;4.47;2.98;;;;;;;6.02;77.27;97817.39;1772910;80;20951;-66
2022/02/18 07:59:47;;;;;;;3.02;2.00;;;;;;;5.99;81.10;97808.02;1772514;80;20954;-65
2022/02/18 08:02:13;;;;;;;4.95;2.42;;;;;;;5.94;83.05;97813.02;1760654;80;21612;-66
2022/02/18 08:04:40;;;;;;;2.60;1.90;;;;;;;5.96;80.52;97813.65;1745402;80;21120;-64
2022/02/18 08:07:06;;;;;;;6.53;2.90;;;;;;;6.01;79.91;97816.56;1758817;80;21054;-65
2022/02/18 08:09:33;;;;;;;5.83;2.98;;;;;;;6.02;79.25;97818.18;1769061;80;21163;-64
2022/02/18 08:12:01;;;;;;;5.67;3.40;;;;;;;6.08;78.58;97817.47;1757517;80;21125;-65
2022/02/18 08:14:29;;;;;;;6.35;4.20;;;;;;;6.33;78.14;97822.47;1749423;81;20848;-67
2022/02/18 08:16:57;;;;;;;7.35;4.03;;;;;;;6.59;78.59;97822.81;1761917;80;21482;-66
2022/02/18 08:19:23;;;;;;;5.92;3.20;;;;;;;7.05;78.82;97825.46;1766615;80;20904;-63
2022/02/18 08:21:50;;;;;;;4.83;2.77;;;;;;;7.31;79.23;97825.72;1748111;80;21154;-67
2022/02/18 08:24:18;;;;;;;5.15;2.67;;;;;;;7.54;77.93;97828.66;1753398;80;21534;-67
2022/02/18 08:26:46;;;;;;;4.85;2.98;;;;;;;7.53;77.18;97831.01;1758589;80;21023;-66
2022/02/18 08:29:12;;;;;;;7.40;3.10;;;;;;;7.42;76.00;97834.98;1771490;80;20888;-65
2022/02/18 08:31:39;;;;;;;5.50;2.98;;;;;;;7.24;76.30;97836.75;1762959;80;20936;-65
2022/02/18 08:34:05;;;;;;;6.03;3.58;;;;;;;7.08;76.06;97837.48;1760587;80;21917;-65
2022/02/18 08:36:33;;;;;;;5.60;3.62;;;;;;;6.95;75.99;97842.63;1771072;80;20928;-67
2022/02/18 08:39:03;;;;;;;5.87;4.03;;;;;;;6.85;75.84;97845.59;1743768;80;21009;-65
2022/02/18 08:41:31;;;;;;;7.30;4.78;;;;;;;6.79;75.71;97856.89;1752585;81;20916;-64
2022/02/18 08:43:58;;;;;;;8.53;5.53;;;;;;;6.75;75.61;97855.64;1747649;80;21009;-65
2022/02/18 08:46:26;;;;;;;10.48;6.17;;;;;;;6.73;75.34;97861.59;1749303;81;21045;-64
2022/02/18 08:48:52;;;;;;;9.05;5.62;;;;;;;6.71;75.09;97855.67;1750344;80;21099;-65
2022/02/18 08:51:19;;;;;;;6.35;4.62;;;;;;;6.65;74.65;97851.11;1752136;80;20979;-65
2022/02/18 08:53:45;;;;;;;6.50;3.87;;;;;;;6.60;74.18;97856.96;1768021;80;21026;-65
2022/02/18 08:56:13;;;;;;;7.58;3.60;;;;;;;6.56;74.16;97862.31;1763627;80;20927;-65
2022/02/18 08:58:40;;;;;;;7.05;3.85;;;;;;;6.59;74.31;97862.45;1757270;80;21149;-65
2022/02/18 09:01:07;;;;;;;5.33;3.22;;;;;;;6.66;74.30;97867.30;1742555;80;21000;-62
2022/02/18 09:03:36;;;;;;;6.78;3.47;;;;;;;6.69;73.83;97869.58;1765898;80;21018;-67
2022/02/18 09:06:03;;;;;;;14.30;2.95;;;;;;;6.69;73.68;97878.33;1751567;80;21047;-66
2022/02/18 09:08:30;;;;;;;5.75;3.35;;;;;;;6.77;73.64;97876.09;1742278;82;20860;-64
2022/02/18 09:10:56;;;;;;;6.65;3.37;;;;;;;6.80;73.60;97878.36;1705516;82;21156;-66
2022/02/18 09:13:24;;;;;;;4.85;3.00;;;;;;;6.86;73.41;97881.57;1691110;84;20932;-65
2022/02/18 09:15:51;;;;;;;4.87;3.20;;;;;;;6.96;73.01;97893.20;1726191;82;20999;-62
2022/02/18 09:18:19;;;;;;;4.95;2.85;;;;;;;7.07;73.18;97889.55;1770094;80;20975;-65
2022/02/18 09:20:48;;;;;;;5.58;2.87;;;;;;;7.06;73.75;97893.22;1770201;80;20974;-65
2022/02/18 09:23:15;;;;;;;6.50;2.85;;;;;;;7.04;73.48;97902.34;1762641;80;21154;-65
2022/02/18 09:25:42;;;;;;;5.00;3.72;;;;;;;7.02;73.71;97905.16;1747633;80;21490;-67
2022/02/18 09:28:09;;;;;;;6.03;3.40;;;;;;;7.05;73.75;97912.72;1744601;82;20905;-65
2022/02/18 09:30:43;;;;;;;3.75;2.80;;;;;;;7.06;73.81;97910.41;1744046;80;21040;-65
2022/02/18 09:33:12;;;;;;;6.37;2.65;;;;;;;7.04;73.58;97920.33;1749599;80;21070;-64
2022/02/18 09:35:40;;;;;;;5.12;3.35;;;;;;;7.03;73.51;97921.84;1753705;80;21193;-63
2022/02/18 09:38:07;;;;;;;4.20;2.95;;;;;;;7.02;73.39;97934.23;1743229;82;20929;-65
2022/02/18 09:40:36;;;;;;;3.58;2.17;;;;;;;7.05;72.79;97937.84;1743988;82;21467;-65
2022/02/18 09:43:03;;;;;;;4.25;2.83;;;;;;;6.96;72.06;97929.68;1745953;80;20905;-64
2022/02/18 09:45:29;;;;;;;4.33;3.10;;;;;;;6.92;71.81;97944.28;1751232;80;21477;-66
2022/02/18 09:47:56;;;;;;;5.83;3.55;;;;;;;6.89;71.47;97945.97;1770754;80;21309;-64
2022/02/18 09:50:23;;;;;;;3.83;3.08;;;;;;;6.89;71.57;97945.97;1752481;80;20896;-66
2022/02/18 09:52:51;;;;;;;4.62;3.70;;;;;;;6.91;71.70;97951.89;1752934;80;21002;-65
2022/02/18 09:55:17;;;;;;;4.60;3.70;;;;;;;6.97;71.50;97947.69;1743080;80;21000;-66
2022/02/18 09:57:43;;;;;;;5.95;3.45;;;;;;;7.02;71.03;97951.92;1760904;80;20852;-62
2022/02/18 10:00:11;;;;;;;5.42;3.27;;;;;;;7.05;70.84;97960.31;1759824;80;21132;-63
2022/02/18 10:02:48;;;;;;;4.33;3.20;;;;;;;7.06;70.82;97961.97;1757752;80;20997;-64
2022/02/18 10:05:13;;;;;;;3.08;2.77;;;;;;;7.13;70.76;97965.51;1751149;80;20934;-63
2022/02/18 10:08:14;;;;;;;4.37;3.12;;;;;;;7.20;70.68;97969.05;1769436;80;21038;-63
2022/02/18 10:10:45;;;;;;;5.83;3.22;;;;;;;7.26;70.15;97966.16;1736515;80;20954;-61
2022/02/18 10:13:37;;;;;;;4.83;3.12;;;;;;;7.31;70.15;97979.66;1762382;80;21048;-63
2022/02/18 10:16:07;;;;;;;3.85;2.80;;;;;;;7.34;70.33;97986.72;1726561;80;21015;-62
2022/02/18 10:19:00;;;;;;;5.55;3.35;;;;;;;7.37;70.29;97986.36;1738428;80;21575;-65
2022/02/18 10:21:31;;;;;;;4.20;2.83;;;;;;;7.34;70.32;97994.66;1753829;80;20999;-63
2022/02/18 10:24:14;;;;;;;4.67;2.85;;;;;;;7.37;70.37;97997.44;1769717;80;20932;-61
2022/02/18 10:26:49;;;;;;;4.15;2.77;;;;;;;7.44;71.45;97999.65;1758915;80;21490;-64
2022/02/18 10:29:25;;;;;;;4.37;3.10;;;;;;;7.51;71.25;98005.03;1760901;80;20959;-64
2022/02/18 10:32:11;;;;;;;4.75;3.27;;;;;;;7.68;70.52;98003.78;1755652;80;20947;-66
2022/02/18 10:35:01;;;;;;;5.15;2.98;;;;;;;7.76;70.51;98012.94;1747515;80;21048;-64
2022/02/18 10:37:29;;;;;;;4.85;3.27;;;;;;;7.89;70.04;98021.02;1767405;80;20987;-64
2022/02/18 10:40:10;;;;;;;3.17;2.65;;;;;;;7.94;70.53;98016.80;1764870;80;21166;-65
2022/02/18 10:42:38;;;;;;;3.35;2.67;;;;;;;7.93;69.84;98018.30;1748851;80;20990;-65
2022/02/18 10:45:13;;;;;;;4.85;2.58;;;;;;;7.94;69.36;98035.83;1763096;80;20925;-65
2022/02/18 10:47:40;;;;;;;4.28;2.60;;;;;;;7.78;72.90;98047.48;1750082;80;20987;-67
2022/02/18 10:50:19;;;;;;;4.85;2.80;;;;;;;7.68;74.02;98056.23;1754391;80;20986;-64
2022/02/18 10:53:15;;;;;;;2.60;1.90;;;;;;;7.57;73.65;98054.05;1769616;80;21109;-63
2022/02/18 10:55:57;;;;;;;6.08;1.90;;;;;;;7.45;72.87;98068.27;1764286;80;21001;-67
2022/02/18 10:58:33;;;;;;;5.75;2.58;;;;;;;7.30;72.56;98076.70;1771083;80;20974;-63
2022/02/18 11:01:27;;;;;;;2.92;2.05;;;;;;;7.19;72.37;98065.78;1759814;80;20996;-66
2022/02/18 11:04:01;;;;;;;4.08;1.80;;;;;;;7.13;73.00;98074.43;1755194;81;21072;-66
2022/02/18 11:06:32;;;;;;;;;;;;;;;7.09;73.01;98076.61;1760365;80;21203;-66
2022/02/18 11:09:09;;;;;;;4.22;2.02;;;;;;;7.10;72.95;98080.08;1752077;81;20962;-63
2022/02/18 11:11:43;;;;;;;4.72;1.90;;;;;;;7.12;73.08;98086.83;1763671;80;20959;-65
2022/02/18 11:14:16;;;;;;;3.10;1.67;;;;;;;7.20;73.25;98092.03;1764359;80;21011;-65
2022/02/18 11:16:52;;;;;;;2.80;1.57;;;;;;;7.30;74.17;98083.31;1760004;80;21429;-66
2022/02/18 11:19:15;;;;;;;3.65;2.08;;;;;;;7.55;74.56;98087.00;1764994;80;21224;-63
2022/02/18 11:21:42;;;;;;;4.35;2.02;;;;;;;7.77;74.20;98088.71;1755165;80;20943;-66
2022/02/18 11:24:08;;;;;;;4.35;2.37;;;;;;;7.95;73.49;98097.06;1764280;80;21049;-65
2022/02/18 11:26:35;;;;;;;4.15;2.62;;;;;;;7.98;72.56;98090.88;1749668;80;21555;-65
2022/02/18 11:29:02;;;;;;;7.62;2.67;;;;;;;8.02;71.88;98087.36;1762315;80;20971;-60
2022/02/18 11:31:52;;;;;;;3.52;2.00;;;;;;;8.04;71.23;98102.05;1769866;80;21064;-60
2022/02/18 11:34:49;;;;;;;3.77;2.10;;;;;;;8.06;70.65;98109.30;1735294;81;20990;-61
2022/02/18 11:37:44;;;;;;;4.45;1.67;;;;;;;8.08;69.92;98109.13;1736183;82;20935;-61
2022/02/18 11:40:22;;;;;;;3.65;1.95;;;;;;;7.96;69.03;98110.61;1732454;82;21600;-60
2022/02/18 11:43:28;;;;;;;2.80;1.70;;;;;;;7.98;69.17;98116.53;1714236;82;21005;-61
2022/02/18 11:46:05;;;;;;;3.02;1.80;;;;;;;8.18;68.92;98106.99;1706259;82;21246;-60
2022/02/18 11:48:43;;;;;;;3.72;2.00;;;;;;;8.44;67.96;98098.02;1731719;82;21418;-61